Time;durP1;ratioP1;P1;durP2;ratioP2;P2;SDS_P1;SDS_P2;PMS_P1;PMS_P2;Temp;Humidity;BMP_temperature;BMP_pressure;BME280_temperature;BME280_humidity;BME280_pressure;Samples;Min_cycle;Max_cycle;Signal;HPM_P1;HPM_P2
2023/01/19 00:01:30;;;;;;;0.00;0.00;;;3.60;99.90;;;;;;5025386;28;20630;-72
2023/01/19 00:03:55;;;;;;;0.00;0.00;;;3.60;99.90;;;;;;5041441;28;20053;-72
2023/01/19 00:06:21;;;;;;;0.00;0.00;;;3.60;99.90;;;;;;5025503;28;20024;-71
2023/01/19 00:08:49;;;;;;;0.00;0.00;;;3.60;99.90;;;;;;5024697;28;20034;-71
2023/01/19 00:11:16;;;;;;;0.00;0.00;;;3.60;99.90;;;;;;5025114;28;20923;-72
2023/01/19 00:13:48;;;;;;;0.00;0.00;;;3.60;99.90;;;;;;5024398;28;20117;-72
2023/01/19 00:16:17;;;;;;;0.00;0.00;;;3.50;99.90;;;;;;5026295;28;20018;-72
2023/01/19 00:18:44;;;;;;;0.00;0.00;;;3.50;99.90;;;;;;5025430;28;20105;-71
2023/01/19 00:21:11;;;;;;;0.00;0.00;;;3.50;99.90;;;;;;5025322;28;20034;-71
2023/01/19 00:23:46;;;;;;;0.00;0.00;;;3.40;99.90;;;;;;5026009;28;20045;-71
2023/01/19 00:26:15;;;;;;;0.00;0.00;;;3.50;99.90;;;;;;5029081;28;20028;-71
2023/01/19 00:28:44;;;;;;;0.00;0.00;;;3.50;99.90;;;;;;5025910;28;21781;-72
2023/01/19 00:31:11;;;;;;;0.00;0.00;;;3.50;99.90;;;;;;5024077;28;20029;-71
2023/01/19 00:33:37;;;;;;;0.00;0.00;;;3.40;99.90;;;;;;5024793;28;20052;-70
2023/01/19 00:36:03;;;;;;;0.00;0.00;;;3.40;99.90;;;;;;5024641;28;20037;-71
2023/01/19 00:38:30;;;;;;;0.00;0.00;;;3.40;99.90;;;;;;5028014;28;20049;-71
2023/01/19 00:40:56;;;;;;;0.00;0.00;;;3.40;99.90;;;;;;5028448;28;20034;-71
2023/01/19 00:43:21;;;;;;;0.00;0.00;;;3.30;99.90;;;;;;5030644;28;20462;-71
2023/01/19 00:45:48;;;;;;;0.00;0.00;;;3.40;99.90;;;;;;5031055;28;20029;-71
2023/01/19 00:48:13;;;;;;;0.00;0.00;;;3.30;99.90;;;;;;5028909;28;20080;-71
2023/01/19 00:50:40;;;;;;;0.00;0.00;;;3.30;99.90;;;;;;5026880;28;20029;-72
2023/01/19 00:53:06;;;;;;;0.00;0.00;;;3.30;99.90;;;;;;5033247;28;20048;-71
2023/01/19 00:55:34;;;;;;;0.00;0.00;;;3.30;99.90;;;;;;5027029;28;20770;-72
2023/01/19 00:58:01;;;;;;;0.00;0.00;;;3.30;99.90;;;;;;5027020;28;20682;-71
2023/01/19 01:00:27;;;;;;;;;;;3.20;99.90;;;;;;5028835;28;20032;-71
2023/01/19 01:02:53;;;;;;;0.00;0.00;;;3.20;99.90;;;;;;5027586;28;19917;-71
2023/01/19 01:05:19;;;;;;;0.00;0.00;;;3.10;99.90;;;;;;5032474;28;20464;-71
2023/01/19 01:07:45;;;;;;;0.00;0.00;;;3.10;99.90;;;;;;5028780;28;20045;-71
2023/01/19 01:10:20;;;;;;;0.00;0.00;;;3.10;99.90;;;;;;5027218;28;20376;-71
2023/01/19 01:12:46;;;;;;;0.00;0.00;;;3.10;99.90;;;;;;5027935;28;20010;-71
2023/01/19 01:15:13;;;;;;;0.00;0.00;;;3.00;99.90;;;;;;5027587;28;20029;-71
2023/01/19 01:17:48;;;;;;;0.00;0.00;;;3.00;99.90;;;;;;5027611;28;20043;-71
2023/01/19 01:20:16;;;;;;;0.00;0.00;;;3.00;99.90;;;;;;5027961;28;20041;-71
2023/01/19 01:22:46;;;;;;;0.00;0.00;;;3.10;99.90;;;;;;5034968;28;20027;-70
2023/01/19 01:25:17;;;;;;;0.00;0.00;;;3.10;99.90;;;;;;5027943;28;20024;-71
2023/01/19 01:27:43;;;;;;;0.10;0.10;;;3.10;99.90;;;;;;5027406;28;20043;-71
2023/01/19 01:30:11;;;;;;;0.00;0.00;;;3.10;99.90;;;;;;5027808;28;20505;-71
2023/01/19 01:32:37;;;;;;;0.00;0.00;;;3.10;99.90;;;;;;5027142;28;20352;-71
2023/01/19 01:35:03;;;;;;;0.00;0.00;;;3.10;99.90;;;;;;5026998;28;20060;-72
2023/01/19 01:37:29;;;;;;;0.00;0.00;;;3.10;99.90;;;;;;5031694;28;20025;-71
2023/01/19 01:39:55;;;;;;;0.00;0.00;;;3.10;99.90;;;;;;5030692;28;20028;-71
2023/01/19 01:42:27;;;;;;;0.00;0.00;;;3.00;99.90;;;;;;5026730;28;20029;-70
2023/01/19 01:44:55;;;;;;;0.00;0.00;;;3.00;99.90;;;;;;5024003;28;20033;-71
2023/01/19 01:47:30;;;;;;;0.00;0.00;;;3.10;99.90;;;;;;5027032;28;20022;-72
2023/01/19 01:50:03;;;;;;;0.03;0.03;;;3.10;99.90;;;;;;5039934;28;20053;-71
2023/01/19 01:52:31;;;;;;;0.00;0.00;;;3.10;99.90;;;;;;5026482;28;20044;-72
2023/01/19 01:54:58;;;;;;;0.00;0.00;;;3.00;99.90;;;;;;5028133;28;20030;-71
2023/01/19 01:57:26;;;;;;;0.00;0.00;;;3.00;99.90;;;;;;5026995;28;20053;-71
2023/01/19 01:59:56;;;;;;;0.30;0.30;;;3.10;99.90;;;;;;5026846;28;20510;-71
2023/01/19 02:05:18;;;;;;;0.00;0.00;;;3.10;99.90;;;;;;5026776;28;20103;-71
2023/01/19 02:13:38;;;;;;;0.00;0.00;;;3.10;99.90;;;;;;5027178;28;20082;-71
2023/01/19 02:16:08;;;;;;;0.00;0.00;;;3.10;99.90;;;;;;5041807;28;20040;-71
2023/01/19 02:18:35;;;;;;;0.00;0.00;;;3.00;99.90;;;;;;5025077;28;20097;-72
2023/01/19 02:21:34;;;;;;;0.00;0.00;;;3.00;99.90;;;;;;5024334;28;20051;-72
2023/01/19 02:24:01;;;;;;;0.00;0.00;;;3.10;99.90;;;;;;5033349;28;20028;-71
2023/01/19 02:26:35;;;;;;;0.00;0.00;;;3.10;99.90;;;;;;5026574;28;20052;-71
2023/01/19 02:29:06;;;;;;;0.00;0.00;;;3.10;99.90;;;;;;5024371;28;20662;-71
2023/01/19 02:31:37;;;;;;;0.00;0.00;;;3.10;99.90;;;;;;5026283;28;20017;-71
2023/01/19 02:34:05;;;;;;;0.00;0.00;;;3.10;99.90;;;;;;5025077;28;20033;-71
2023/01/19 02:36:43;;;;;;;0.00;0.00;;;3.10;99.90;;;;;;5026118;28;20025;-71
2023/01/19 02:39:10;;;;;;;0.00;0.00;;;3.10;99.90;;;;;;5026162;28;20061;-71
2023/01/19 02:41:41;;;;;;;0.00;0.00;;;3.10;99.90;;;;;;5025858;28;20021;-71
2023/01/19 02:44:08;;;;;;;0.00;0.00;;;3.10;99.90;;;;;;5026061;28;20033;-70
2023/01/19 02:46:36;;;;;;;0.00;0.00;;;3.20;99.90;;;;;;5026060;28;20048;-71
2023/01/19 02:49:03;;;;;;;0.00;0.00;;;3.20;99.90;;;;;;5024666;28;20408;-71
2023/01/19 02:51:30;;;;;;;;;;;3.10;99.90;;;;;;5027223;28;20024;-72
2023/01/19 02:54:19;;;;;;;0.00;0.00;;;3.10;99.90;;;;;;5026896;28;19905;-71
2023/01/19 02:56:49;;;;;;;0.00;0.00;;;3.20;99.90;;;;;;5041491;28;20634;-71
2023/01/19 02:59:38;;;;;;;0.00;0.00;;;3.10;99.90;;;;;;5042043;28;20101;-72
2023/01/19 03:02:35;;;;;;;0.00;0.00;;;3.10;99.90;;;;;;5023938;28;20050;-71
2023/01/19 03:05:22;;;;;;;0.00;0.00;;;3.10;99.90;;;;;;5023432;28;20049;-71
2023/01/19 03:07:57;;;;;;;0.00;0.00;;;3.00;99.90;;;;;;5022931;28;20087;-71
2023/01/19 03:10:31;;;;;;;2.10;0.15;;;3.00;99.90;;;;;;5042103;28;20026;-71
2023/01/19 03:13:09;;;;;;;0.00;0.00;;;3.00;99.90;;;;;;5023287;28;20048;-71
2023/01/19 03:15:46;;;;;;;0.00;0.00;;;2.90;99.90;;;;;;5024907;28;20029;-72
2023/01/19 03:18:16;;;;;;;0.00;0.00;;;2.80;99.90;;;;;;5024552;28;20729;-71
2023/01/19 03:20:43;;;;;;;0.00;0.00;;;2.80;99.90;;;;;;5025342;28;20041;-72
2023/01/19 03:23:12;;;;;;;0.00;0.00;;;2.70;99.90;;;;;;5025760;28;21631;-71
2023/01/19 03:25:42;;;;;;;0.00;0.00;;;2.60;99.90;;;;;;5025250;28;20075;-71
2023/01/19 03:28:08;;;;;;;0.00;0.00;;;2.60;99.90;;;;;;5025595;28;20083;-71
2023/01/19 03:30:39;;;;;;;0.00;0.00;;;2.60;99.90;;;;;;5024884;28;20064;-71
2023/01/19 03:33:13;;;;;;;0.00;0.00;;;2.70;99.90;;;;;;5025668;28;20877;-71
2023/01/19 03:35:43;;;;;;;0.00;0.00;;;2.60;99.90;;;;;;5029346;28;20044;-71
2023/01/19 03:38:15;;;;;;;0.00;0.00;;;2.60;99.90;;;;;;5040992;28;20057;-72
2023/01/19 03:40:41;;;;;;;0.00;0.00;;;2.60;99.90;;;;;;5024789;28;20552;-71
2023/01/19 03:43:08;;;;;;;0.00;0.00;;;2.60;99.90;;;;;;5024213;28;20037;-72
2023/01/19 03:45:37;;;;;;;0.13;0.13;;;2.70;99.90;;;;;;5023698;28;20057;-72
2023/01/19 03:48:04;;;;;;;0.00;0.00;;;2.70;99.90;;;;;;5024528;28;20360;-72
2023/01/19 03:50:30;;;;;;;0.00;0.00;;;2.80;99.90;;;;;;5024725;28;20022;-72
2023/01/19 03:53:07;;;;;;;0.00;0.00;;;2.90;99.90;;;;;;5024365;28;20025;-72
2023/01/19 03:55:34;;;;;;;0.22;0.15;;;2.90;99.90;;;;;;5029301;28;20430;-71
2023/01/19 03:58:00;;;;;;;0.00;0.00;;;3.00;99.90;;;;;;5024772;28;20026;-71
2023/01/19 04:00:26;;;;;;;0.00;0.00;;;3.10;99.90;;;;;;5024810;28;20052;-72
2023/01/19 04:02:52;;;;;;;0.00;0.00;;;3.20;99.90;;;;;;5027992;28;20064;-70
2023/01/19 04:05:18;;;;;;;0.00;0.00;;;3.20;99.90;;;;;;5025867;28;20039;-72
2023/01/19 04:07:43;;;;;;;0.17;0.17;;;3.20;99.90;;;;;;5025163;28;20017;-71
2023/01/19 04:10:11;;;;;;;0.00;0.00;;;3.20;99.90;;;;;;5025057;28;20037;-72
2023/01/19 04:12:38;;;;;;;0.00;0.00;;;3.30;99.90;;;;;;5025263;28;20049;-71
2023/01/19 04:15:05;;;;;;;0.00;0.00;;;3.30;99.90;;;;;;5028739;28;20034;-72
2023/01/19 04:17:31;;;;;;;0.13;0.13;;;3.30;99.90;;;;;;5030428;28;20025;-72
2023/01/19 04:19:57;;;;;;;0.00;0.00;;;3.30;99.90;;;;;;5032877;28;20026;-72
2023/01/19 04:22:23;;;;;;;0.00;0.00;;;3.20;99.90;;;;;;5028000;28;20033;-71
2023/01/19 04:24:49;;;;;;;0.17;0.17;;;3.20;99.90;;;;;;5028686;28;20025;-72
2023/01/19 04:27:15;;;;;;;0.00;0.00;;;3.30;99.90;;;;;;5030498;28;20018;-72
2023/01/19 04:29:41;;;;;;;0.00;0.00;;;3.10;99.90;;;;;;5027694;28;21718;-72
2023/01/19 04:32:07;;;;;;;0.00;0.00;;;3.10;99.90;;;;;;5031971;28;20040;-71
2023/01/19 04:34:32;;;;;;;0.00;0.00;;;3.10;99.90;;;;;;5028621;28;20488;-72
2023/01/19 04:36:58;;;;;;;0.00;0.00;;;3.10;99.90;;;;;;5027361;28;20022;-71
2023/01/19 04:39:24;;;;;;;0.00;0.00;;;3.10;99.90;;;;;;5026875;28;20108;-72
2023/01/19 04:41:51;;;;;;;0.00;0.00;;;3.10;99.90;;;;;;5027912;28;20028;-71
2023/01/19 04:44:16;;;;;;;0.00;0.00;;;3.00;99.90;;;;;;5029213;28;20356;-71
2023/01/19 04:46:42;;;;;;;0.00;0.00;;;3.10;99.90;;;;;;5026976;28;20025;-71
2023/01/19 04:49:09;;;;;;;0.00;0.00;;;3.00;99.90;;;;;;5028164;28;20022;-71
2023/01/19 04:51:34;;;;;;;0.00;0.00;;;3.10;99.90;;;;;;5027405;28;20511;-72
2023/01/19 04:54:01;;;;;;;0.00;0.00;;;3.10;99.90;;;;;;5027233;28;20148;-71
2023/01/19 04:56:27;;;;;;;0.00;0.00;;;3.10;99.90;;;;;;5027859;28;20026;-72
2023/01/19 04:58:53;;;;;;;0.00;0.00;;;3.10;99.90;;;;;;5030490;28;20029;-71
2023/01/19 05:01:18;;;;;;;0.00;0.00;;;3.10;99.90;;;;;;5025683;28;20018;-71
2023/01/19 05:03:44;;;;;;;0.00;0.00;;;3.10;99.90;;;;;;5030840;28;20048;-72
2023/01/19 05:06:10;;;;;;;0.00;0.00;;;3.10;99.90;;;;;;5024501;28;20041;-71
2023/01/19 05:08:36;;;;;;;0.37;0.37;;;3.10;99.90;;;;;;5031983;28;20028;-72
2023/01/19 05:11:02;;;;;;;0.25;0.25;;;3.10;99.90;;;;;;5031295;28;20029;-72
2023/01/19 05:13:27;;;;;;;0.00;0.00;;;3.10;99.90;;;;;;5027684;28;20027;-71
2023/01/19 05:15:53;;;;;;;0.00;0.00;;;3.00;99.90;;;;;;5027911;28;20037;-72
2023/01/19 05:18:18;;;;;;;0.03;0.03;;;3.00;99.90;;;;;;5043973;28;20644;-72
2023/01/19 05:20:44;;;;;;;0.00;0.00;;;3.00;99.90;;;;;;5027206;28;20116;-71
2023/01/19 05:23:10;;;;;;;0.00;0.00;;;3.00;99.90;;;;;;5027755;28;20025;-72
2023/01/19 05:25:35;;;;;;;0.00;0.00;;;3.00;99.90;;;;;;5027838;28;20105;-71
2023/01/19 05:28:02;;;;;;;0.00;0.00;;;3.10;99.90;;;;;;5028196;28;20666;-72
2023/01/19 05:30:27;;;;;;;0.00;0.00;;;3.00;99.90;;;;;;5046484;28;20578;-72
2023/01/19 05:32:53;;;;;;;0.00;0.00;;;3.00;99.90;;;;;;5033630;28;20040;-72
2023/01/19 05:35:19;;;;;;;0.00;0.00;;;3.00;99.90;;;;;;5028457;28;20022;-71
2023/01/19 05:37:44;;;;;;;0.00;0.00;;;3.00;99.90;;;;;;5027930;28;20026;-72
2023/01/19 05:40:10;;;;;;;0.47;0.20;;;3.00;99.90;;;;;;5027647;28;20030;-71
2023/01/19 05:42:36;;;;;;;0.00;0.00;;;3.00;99.90;;;;;;5024731;28;20394;-72
2023/01/19 05:45:03;;;;;;;0.00;0.00;;;3.10;99.90;;;;;;5025598;28;20392;-72
2023/01/19 05:47:29;;;;;;;0.00;0.00;;;3.10;99.90;;;;;;5030989;28;20017;-72
2023/01/19 05:49:55;;;;;;;0.00;0.00;;;3.00;99.90;;;;;;5027214;28;20025;-71
2023/01/19 05:52:21;;;;;;;0.00;0.00;;;3.10;99.90;;;;;;5027012;28;20257;-72
2023/01/19 05:54:47;;;;;;;0.00;0.00;;;3.10;99.90;;;;;;5034339;28;20034;-72
2023/01/19 05:57:13;;;;;;;0.00;0.00;;;3.10;99.90;;;;;;5025889;28;20036;-72
2023/01/19 05:59:39;;;;;;;0.00;0.00;;;3.10;99.90;;;;;;5026759;28;20075;-72
2023/01/19 06:02:07;;;;;;;0.00;0.00;;;3.10;99.90;;;;;;5026321;28;20431;-72
2023/01/19 06:04:34;;;;;;;0.00;0.00;;;3.10;99.90;;;;;;5027399;28;20030;-73
2023/01/19 06:07:00;;;;;;;0.00;0.00;;;3.00;99.90;;;;;;5042712;28;20026;-72
2023/01/19 06:09:26;;;;;;;0.00;0.00;;;3.10;99.90;;;;;;5031126;28;20024;-72
2023/01/19 06:11:54;;;;;;;0.27;0.27;;;3.10;99.90;;;;;;5030031;28;20022;-71
2023/01/19 06:14:20;;;;;;;0.00;0.00;;;3.10;99.90;;;;;;5026218;28;20114;-71
2023/01/19 06:16:45;;;;;;;0.00;0.00;;;3.00;99.90;;;;;;5025682;28;20788;-71
2023/01/19 06:19:13;;;;;;;0.00;0.00;;;3.10;99.90;;;;;;5024358;28;20091;-72
2023/01/19 06:21:39;;;;;;;0.00;0.00;;;3.10;99.90;;;;;;5027762;28;20058;-72
2023/01/19 06:24:05;;;;;;;0.00;0.00;;;3.00;99.90;;;;;;5024922;28;20083;-72
2023/01/19 06:26:31;;;;;;;0.00;0.00;;;3.10;99.90;;;;;;5024476;28;20022;-72
2023/01/19 06:28:56;;;;;;;0.00;0.00;;;3.10;99.90;;;;;;5027354;28;20028;-72
2023/01/19 06:31:22;;;;;;;0.00;0.00;;;3.10;99.90;;;;;;5027965;28;20025;-72
2023/01/19 06:33:48;;;;;;;0.00;0.00;;;3.20;99.90;;;;;;5025494;28;20018;-72
2023/01/19 06:36:14;;;;;;;0.00;0.00;;;3.20;99.90;;;;;;5024657;28;20037;-71
2023/01/19 06:38:39;;;;;;;0.00;0.00;;;3.20;99.90;;;;;;5024855;28;20029;-72
2023/01/19 06:41:05;;;;;;;0.00;0.00;;;3.20;99.90;;;;;;5025039;28;20436;-72
2023/01/19 06:43:31;;;;;;;0.00;0.00;;;3.10;99.90;;;;;;5024839;28;20037;-72
2023/01/19 06:45:59;;;;;;;0.00;0.00;;;3.10;99.90;;;;;;5028878;28;20025;-71
2023/01/19 06:48:25;;;;;;;0.00;0.00;;;3.10;99.90;;;;;;5029961;28;20470;-72
2023/01/19 06:50:50;;;;;;;0.00;0.00;;;3.20;99.90;;;;;;5024746;28;20021;-72
2023/01/19 06:53:18;;;;;;;0.00;0.00;;;3.20;99.90;;;;;;5023611;28;20032;-72
2023/01/19 06:55:44;;;;;;;0.00;0.00;;;3.20;99.90;;;;;;5026470;28;20053;-72
2023/01/19 06:58:11;;;;;;;0.00;0.00;;;3.10;99.90;;;;;;5030231;28;20534;-72
2023/01/19 07:00:37;;;;;;;0.00;0.00;;;3.20;99.90;;;;;;5025564;28;20096;-73
2023/01/19 07:03:06;;;;;;;0.00;0.00;;;3.20;99.90;;;;;;5025527;28;20105;-72
2023/01/19 07:05:34;;;;;;;0.00;0.00;;;3.20;99.90;;;;;;5027596;28;20785;-72
2023/01/19 07:08:00;;;;;;;0.00;0.00;;;3.20;99.90;;;;;;5027914;28;20391;-72
2023/01/19 07:10:25;;;;;;;0.00;0.00;;;3.20;99.90;;;;;;5025892;28;20018;-72
2023/01/19 07:12:52;;;;;;;0.00;0.00;;;3.20;99.90;;;;;;5024473;28;20029;-72
2023/01/19 07:15:20;;;;;;;0.05;0.05;;;3.20;99.90;;;;;;5026641;28;20036;-72
2023/01/19 07:17:46;;;;;;;0.00;0.00;;;3.10;99.90;;;;;;5025136;28;20025;-72
2023/01/19 07:20:13;;;;;;;0.00;0.00;;;3.10;99.90;;;;;;5028110;28;20072;-72
2023/01/19 07:22:40;;;;;;;0.00;0.00;;;3.10;99.90;;;;;;5023855;28;20991;-72
2023/01/19 07:25:06;;;;;;;0.00;0.00;;;3.10;99.90;;;;;;5025811;28;20119;-71
2023/01/19 07:27:32;;;;;;;0.00;0.00;;;3.10;99.90;;;;;;5045168;28;20543;-73
2023/01/19 07:29:59;;;;;;;0.00;0.00;;;3.10;99.90;;;;;;5025520;28;20025;-73
2023/01/19 07:32:26;;;;;;;0.00;0.00;;;3.20;99.90;;;;;;5044581;28;20112;-72
2023/01/19 07:34:52;;;;;;;0.00;0.00;;;3.20;99.90;;;;;;5026475;28;20029;-72
2023/01/19 07:37:17;;;;;;;0.00;0.00;;;3.20;99.90;;;;;;5026557;28;20550;-72
2023/01/19 07:39:43;;;;;;;0.00;0.00;;;3.30;99.90;;;;;;5025891;28;20037;-73
2023/01/19 07:42:08;;;;;;;0.00;0.00;;;3.30;99.90;;;;;;5020841;28;21905;-72
2023/01/19 07:44:34;;;;;;;0.00;0.00;;;3.20;99.90;;;;;;5024343;28;20033;-72
2023/01/19 07:47:00;;;;;;;0.00;0.00;;;3.30;99.90;;;;;;5028571;28;20025;-72
2023/01/19 07:49:25;;;;;;;0.00;0.00;;;3.30;99.90;;;;;;5032352;28;20033;-72
2023/01/19 07:51:51;;;;;;;0.00;0.00;;;3.30;99.90;;;;;;5030500;28;20025;-72
2023/01/19 07:54:17;;;;;;;0.00;0.00;;;3.30;99.90;;;;;;5036312;28;20033;-73
2023/01/19 07:56:42;;;;;;;0.00;0.00;;;3.30;99.90;;;;;;5032797;28;20022;-72
2023/01/19 07:59:09;;;;;;;0.00;0.00;;;3.30;99.90;;;;;;5031442;28;20052;-72
2023/01/19 08:01:36;;;;;;;0.00;0.00;;;3.30;99.90;;;;;;5032626;28;20028;-73
2023/01/19 08:04:02;;;;;;;0.00;0.00;;;3.30;99.90;;;;;;5032513;28;20390;-72
2023/01/19 08:06:38;;;;;;;0.20;0.20;;;3.30;99.90;;;;;;5035379;28;20022;-72
2023/01/19 08:09:05;;;;;;;0.00;0.00;;;3.40;99.90;;;;;;5032180;28;20518;-73
2023/01/19 08:11:31;;;;;;;0.00;0.00;;;3.40;99.90;;;;;;5034810;28;20049;-72
2023/01/19 08:13:59;;;;;;;0.32;0.32;;;3.50;99.90;;;;;;5032999;28;20661;-72
2023/01/19 08:16:26;;;;;;;0.00;0.00;;;3.50;99.90;;;;;;5030174;28;20028;-72
2023/01/19 08:18:52;;;;;;;0.00;0.00;;;3.50;99.90;;;;;;5032270;28;20021;-72
2023/01/19 08:21:17;;;;;;;1.03;0.60;;;3.60;99.90;;;;;;5032492;28;20539;-73
2023/01/19 08:23:51;;;;;;;0.00;0.00;;;3.60;99.90;;;;;;5033128;28;20447;-73
2023/01/19 08:26:26;;;;;;;0.00;0.00;;;3.60;99.90;;;;;;5032568;28;20029;-72
2023/01/19 08:28:56;;;;;;;0.00;0.00;;;3.60;99.90;;;;;;5030928;28;20030;-75
2023/01/19 08:31:22;;;;;;;0.00;0.00;;;3.70;99.90;;;;;;5046795;28;20026;-73
2023/01/19 08:33:49;;;;;;;0.00;0.00;;;3.70;99.90;;;;;;5032919;28;20021;-72
2023/01/19 08:36:15;;;;;;;;;;;3.70;99.90;;;;;;5036767;28;20368;-72
2023/01/19 08:38:44;;;;;;;0.20;0.20;;;3.90;99.90;;;;;;5032760;28;19924;-73
2023/01/19 08:41:10;;;;;;;0.10;0.10;;;4.00;99.90;;;;;;5031641;28;20060;-72
2023/01/19 08:43:36;;;;;;;0.00;0.00;;;4.00;99.90;;;;;;5030865;28;20040;-73
2023/01/19 08:46:02;;;;;;;0.00;0.00;;;4.10;99.90;;;;;;5032329;28;20032;-72
2023/01/19 08:48:28;;;;;;;0.00;0.00;;;4.20;99.90;;;;;;5031544;28;20581;-72
2023/01/19 08:50:54;;;;;;;0.00;0.00;;;4.20;99.90;;;;;;5031704;28;20030;-73
2023/01/19 08:53:22;;;;;;;0.00;0.00;;;4.30;99.90;;;;;;5031006;28;20018;-72
2023/01/19 08:55:48;;;;;;;0.00;0.00;;;4.40;99.90;;;;;;5029235;28;20475;-73
2023/01/19 08:58:14;;;;;;;0.00;0.00;;;4.40;99.90;;;;;;5029908;28;20029;-72
2023/01/19 09:00:40;;;;;;;0.00;0.00;;;4.50;99.90;;;;;;5028639;28;21408;-73
2023/01/19 09:03:08;;;;;;;0.00;0.00;;;4.50;99.90;;;;;;5029620;28;20723;-72
2023/01/19 09:05:37;;;;;;;0.00;0.00;;;4.70;99.90;;;;;;5027738;28;20052;-73
2023/01/19 09:08:12;;;;;;;0.00;0.00;;;4.60;99.90;;;;;;5033040;28;20021;-72
2023/01/19 09:10:39;;;;;;;0.00;0.00;;;4.90;99.90;;;;;;5028544;28;20014;-72
2023/01/19 09:13:07;;;;;;;0.00;0.00;;;5.00;99.90;;;;;;5028825;28;20543;-73
2023/01/19 09:15:36;;;;;;;0.00;0.00;;;4.90;99.90;;;;;;5028597;28;20071;-72
2023/01/19 09:18:06;;;;;;;0.00;0.00;;;5.00;99.90;;;;;;5028680;28;20742;-72
2023/01/19 09:20:34;;;;;;;0.00;0.00;;;5.00;99.90;;;;;;5028321;28;20036;-72
2023/01/19 09:23:00;;;;;;;0.32;0.32;;;5.10;99.90;;;;;;5028590;28;20061;-72
2023/01/19 09:25:26;;;;;;;0.00;0.00;;;5.10;99.90;;;;;;5028702;28;20411;-73
2023/01/19 09:27:52;;;;;;;0.00;0.00;;;5.10;99.90;;;;;;5030089;28;20025;-73
2023/01/19 09:30:18;;;;;;;0.00;0.00;;;5.00;99.90;;;;;;5029318;28;20725;-72
2023/01/19 09:32:44;;;;;;;0.00;0.00;;;5.10;99.90;;;;;;5028759;28;20033;-72
2023/01/19 09:35:10;;;;;;;0.00;0.00;;;5.00;99.90;;;;;;5028457;28;20033;-72
2023/01/19 09:37:36;;;;;;;0.00;0.00;;;5.10;99.90;;;;;;5028855;28;20079;-72
2023/01/19 09:40:03;;;;;;;0.00;0.00;;;5.00;99.90;;;;;;5032236;28;20038;-72
2023/01/19 09:42:36;;;;;;;0.00;0.00;;;5.10;99.90;;;;;;5030727;28;20025;-72
2023/01/19 09:45:06;;;;;;;0.00;0.00;;;5.20;99.90;;;;;;5028565;28;20686;-72
2023/01/19 09:47:37;;;;;;;0.05;0.05;;;5.20;99.90;;;;;;5029483;28;20025;-72
2023/01/19 09:50:11;;;;;;;0.00;0.00;;;5.30;99.90;;;;;;5027767;28;20024;-73
2023/01/19 09:52:41;;;;;;;0.00;0.00;;;5.50;99.90;;;;;;5027362;28;20024;-73
2023/01/19 09:55:25;;;;;;;0.00;0.00;;;5.50;99.90;;;;;;5026879;28;20033;-73
2023/01/19 09:57:52;;;;;;;0.00;0.00;;;5.50;99.90;;;;;;5024818;28;20017;-73
2023/01/19 10:00:18;;;;;;;;;;;5.70;99.90;;;;;;5029095;28;20017;-72
2023/01/19 10:03:19;;;;;;;0.00;0.00;;;5.80;99.90;;;;;;5027343;28;19913;-72
2023/01/19 10:05:57;;;;;;;0.00;0.00;;;6.00;99.90;;;;;;5027997;28;20410;-72
2023/01/19 10:08:49;;;;;;;0.00;0.00;;;6.00;99.90;;;;;;5032322;28;20088;-72
2023/01/19 10:11:44;;;;;;;0.00;0.00;;;6.20;99.90;;;;;;5042200;28;20413;-73
2023/01/19 10:14:29;;;;;;;0.00;0.00;;;6.80;99.90;;;;;;5031838;28;20100;-72
2023/01/19 10:17:01;;;;;;;0.00;0.00;;;7.10;99.90;;;;;;5025432;28;20522;-72
2023/01/19 10:19:36;;;;;;;0.00;0.00;;;7.30;99.90;;;;;;5027945;28;20060;-72
2023/01/19 10:22:17;;;;;;;0.00;0.00;;;7.10;99.90;;;;;;5025230;28;20028;-72
2023/01/19 10:24:44;;;;;;;0.00;0.00;;;7.40;99.90;;;;;;5026145;28;20025;-73
2023/01/19 10:27:19;;;;;;;0.00;0.00;;;7.40;99.90;;;;;;5046307;28;20080;-73
2023/01/19 10:29:45;;;;;;;0.00;0.00;;;7.40;99.90;;;;;;5028044;28;20092;-73
2023/01/19 10:32:16;;;;;;;0.00;0.00;;;7.90;99.90;;;;;;5026512;28;20120;-73
2023/01/19 10:34:42;;;;;;;2.47;1.45;;;7.90;99.90;;;;;;5031067;28;20040;-73
2023/01/19 10:37:17;;;;;;;0.00;0.00;;;7.70;99.90;;;;;;5028199;28;20390;-72
2023/01/19 10:39:46;;;;;;;0.00;0.00;;;7.30;99.90;;;;;;5041868;28;20029;-72
2023/01/19 10:42:14;;;;;;;0.00;0.00;;;7.40;99.90;;;;;;5026279;28;20128;-73
2023/01/19 10:44:40;;;;;;;0.00;0.00;;;7.50;99.90;;;;;;5025914;28;20025;-73
2023/01/19 10:47:17;;;;;;;0.00;0.00;;;7.90;99.90;;;;;;5026556;28;20041;-72
2023/01/19 10:49:43;;;;;;;0.00;0.00;;;8.00;99.90;;;;;;5025588;28;20022;-73
2023/01/19 10:52:34;;;;;;;0.00;0.00;;;7.90;99.60;;;;;;5029554;28;21834;-73
2023/01/19 10:55:03;;;;;;;0.00;0.00;;;7.90;99.50;;;;;;5029807;28;20029;-73
2023/01/19 10:57:37;;;;;;;0.00;0.00;;;8.10;98.70;;;;;;5026561;28;20075;-72
2023/01/19 11:00:25;;;;;;;0.00;0.00;;;7.70;98.20;;;;;;5029142;28;20486;-72
2023/01/19 11:02:51;;;;;;;0.00;0.00;;;7.30;98.40;;;;;;5030329;28;20044;-73
2023/01/19 11:05:26;;;;;;;0.00;0.00;;;7.20;99.20;;;;;;5027743;28;20021;-73
2023/01/19 11:07:52;;;;;;;0.00;0.00;;;6.80;99.70;;;;;;5025383;28;20048;-72
2023/01/19 11:10:23;;;;;;;0.00;0.00;;;6.90;99.40;;;;;;5025961;28;20746;-72
2023/01/19 11:12:54;;;;;;;0.00;0.00;;;7.10;99.10;;;;;;5025043;28;20479;-72
2023/01/19 11:15:32;;;;;;;0.00;0.00;;;7.20;98.50;;;;;;5042608;28;20060;-72
2023/01/19 11:17:58;;;;;;;0.00;0.00;;;7.30;97.40;;;;;;5026716;28;20035;-71
2023/01/19 11:20:49;;;;;;;0.10;0.10;;;7.40;97.20;;;;;;5032905;28;20113;-73
2023/01/19 11:23:32;;;;;;;0.00;0.00;;;6.80;97.60;;;;;;5046421;28;20630;-73
2023/01/19 11:26:05;;;;;;;0.00;0.00;;;6.60;98.10;;;;;;5024183;28;20026;-73
2023/01/19 11:28:34;;;;;;;0.00;0.00;;;6.40;98.10;;;;;;5027930;28;20018;-72
2023/01/19 11:31:18;;;;;;;0.00;0.00;;;6.20;96.50;;;;;;5031381;28;20677;-72
2023/01/19 11:33:49;;;;;;;0.00;0.00;;;5.70;95.60;;;;;;5026525;28;20033;-72
2023/01/19 11:36:19;;;;;;;0.00;0.00;;;5.50;92.30;;;;;;5041743;28;20025;-73
2023/01/19 11:38:49;;;;;;;0.00;0.00;;;5.30;91.70;;;;;;5031436;28;20112;-72
2023/01/19 11:41:36;;;;;;;1.35;0.63;;;5.20;93.80;;;;;;5027778;28;20063;-72
2023/01/19 11:44:18;;;;;;;0.00;0.00;;;5.20;95.40;;;;;;5025708;28;20041;-72
2023/01/19 11:46:50;;;;;;;0.00;0.00;;;5.10;96.20;;;;;;5025786;28;20399;-73
2023/01/19 11:49:25;;;;;;;0.00;0.00;;;5.20;97.50;;;;;;5026952;28;20132;-72
2023/01/19 11:52:26;;;;;;;0.00;0.00;;;5.10;98.20;;;;;;5029125;28;20021;-72
2023/01/19 11:55:26;;;;;;;0.00;0.00;;;5.00;98.80;;;;;;5028607;28;20033;-72
2023/01/19 11:57:53;;;;;;;0.00;0.00;;;5.00;99.50;;;;;;5017745;28;20080;-72
2023/01/19 12:00:28;;;;;;;0.00;0.00;;;5.00;97.40;;;;;;5032088;28;20017;-72
2023/01/19 12:03:03;;;;;;;0.00;0.00;;;4.90;96.10;;;;;;5038530;28;20488;-73
2023/01/19 12:05:34;;;;;;;0.00;0.00;;;4.80;96.00;;;;;;5026920;28;20067;-72
2023/01/19 12:08:05;;;;;;;0.00;0.00;;;4.80;96.00;;;;;;5027238;28;20021;-72
2023/01/19 12:10:36;;;;;;;0.00;0.00;;;4.70;96.40;;;;;;5026475;28;20021;-72
2023/01/19 12:13:03;;;;;;;0.00;0.00;;;4.70;96.40;;;;;;5033972;28;20488;-72
2023/01/19 12:15:33;;;;;;;;;;;4.70;96.50;;;;;;5026832;28;20032;-72
2023/01/19 12:18:01;;;;;;;0.00;0.00;;;4.60;96.50;;;;;;5029978;28;20461;-72
2023/01/19 12:20:35;;;;;;;0.00;0.00;;;4.60;97.40;;;;;;5029162;28;20021;-72
2023/01/19 12:23:10;;;;;;;0.00;0.00;;;4.60;97.90;;;;;;5037188;28;20033;-72
2023/01/19 12:26:05;;;;;;;0.05;0.05;;;4.60;98.90;;;;;;5024483;28;20021;-73
2023/01/19 12:28:33;;;;;;;0.00;0.00;;;4.50;99.20;;;;;;5028308;28;20021;-72
2023/01/19 12:31:00;;;;;;;0.00;0.00;;;4.40;99.50;;;;;;5026594;28;20117;-73
2023/01/19 12:33:34;;;;;;;0.00;0.00;;;4.40;99.90;;;;;;5025824;28;20029;-72
2023/01/19 12:36:02;;;;;;;0.00;0.00;;;4.40;99.90;;;;;;5035294;28;20060;-73
2023/01/19 12:38:41;;;;;;;0.00;0.00;;;4.40;99.90;;;;;;5039705;28;20017;-73
2023/01/19 12:41:20;;;;;;;0.00;0.00;;;4.40;99.90;;;;;;5028665;28;20026;-72
2023/01/19 12:44:07;;;;;;;0.00;0.00;;;4.30;99.90;;;;;;5048580;28;20117;-72
2023/01/19 12:46:33;;;;;;;0.00;0.00;;;4.40;99.90;;;;;;5032406;28;20035;-73
2023/01/19 12:49:08;;;;;;;0.00;0.00;;;4.40;99.90;;;;;;5040713;28;20041;-72
2023/01/19 12:51:34;;;;;;;0.00;0.00;;;4.50;99.90;;;;;;5028840;28;20352;-72
2023/01/19 12:54:03;;;;;;;0.00;0.00;;;4.40;99.90;;;;;;5031991;28;20049;-72
2023/01/19 12:56:33;;;;;;;0.00;0.00;;;4.40;99.90;;;;;;5027656;28;20025;-72
2023/01/19 12:58:59;;;;;;;0.00;0.00;;;4.50;99.90;;;;;;5033200;28;20048;-72
2023/01/19 13:01:25;;;;;;;0.00;0.00;;;4.50;99.90;;;;;;5026984;28;20017;-73
2023/01/19 13:04:08;;;;;;;0.00;0.00;;;4.50;99.90;;;;;;5030325;28;20044;-73
2023/01/19 13:06:49;;;;;;;0.00;0.00;;;4.40;99.90;;;;;;5032224;28;20454;-73
2023/01/19 13:09:29;;;;;;;0.00;0.00;;;4.50;99.90;;;;;;5036393;28;20018;-72
2023/01/19 13:12:13;;;;;;;0.00;0.00;;;4.60;99.90;;;;;;5028713;28;20083;-74
2023/01/19 13:14:41;;;;;;;0.00;0.00;;;4.70;99.90;;;;;;5029878;28;20025;-69
2023/01/19 13:17:26;;;;;;;0.00;0.00;;;4.80;99.90;;;;;;5032119;28;20033;-74
2023/01/19 13:20:18;;;;;;;0.00;0.00;;;4.80;99.90;;;;;;5036976;28;20029;-72